Time,TemperatureF,DewpointF,PressureIn,WindDirection,WindDirectionDegrees,WindSpeedMPH,WindSpeedGustMPH,Humidity,HourlyPrecipIn,Conditions,Clouds,dailyrainin,SoftwareType,DateUTC
2013-06-12 00:03:00,66.9,56.8,27.91,NNE,23,0.0,0.0,70,0.00,,,0.00,WSDL version 420,2013-06-12 04:03:00,
2013-06-12 00:08:00,66.9,57.2,27.91,NNE,23,0.0,0.0,71,0.00,,,0.00,WSDL version 420,2013-06-12 04:08:00,
2013-06-12 00:13:00,66.8,57.1,27.91,NNE,23,0.0,0.0,71,0.00,,,0.00,WSDL version 420,2013-06-12 04:13:00,
2013-06-12 00:18:00,66.5,56.8,27.91,NNE,23,0.0,0.0,71,0.00,,,0.00,WSDL version 420,2013-06-12 04:18:00,
2013-06-12 00:23:00,66.4,56.7,27.91,NNE,23,0.0,0.0,71,0.00,,,0.00,WSDL version 420,2013-06-12 04:23:00,
2013-06-12 00:28:00,66.4,56.7,27.91,NNE,23,0.0,0.0,71,0.00,,,0.00,WSDL version 420,2013-06-12 04:28:00,
2013-06-12 00:33:00,66.4,56.7,27.91,NNE,23,0.0,0.0,71,0.00,,,0.00,WSDL version 420,2013-06-12 04:33:00,
2013-06-12 00:38:00,66.4,57.0,27.91,SE,135,0.0,0.0,72,0.00,,,0.00,WSDL version 420,2013-06-12 04:38:00,
2013-06-12 00:43:00,66.1,56.8,27.91,SE,135,0.0,0.0,72,0.00,,,0.00,WSDL version 420,2013-06-12 04:43:00,
2013-06-12 00:48:00,66.0,57.0,27.91,SE,135,0.0,0.0,73,0.00,,,0.00,WSDL version 420,2013-06-12 04:48:00,
2013-06-12 00:53:00,66.2,57.0,27.91,SE,135,0.0,0.0,72,0.00,,,0.00,WSDL version 420,2013-06-12 04:53:00,
2013-06-12 00:58:00,66.1,57.1,27.91,ESE,105,0.0,0.0,73,0.00,,,0.00,WSDL version 420,2013-06-12 04:58:00,
2013-06-12 01:03:00,66.0,57.1,27.91,East,90,0.0,0.0,73,0.00,,,0.00,WSDL version 420,2013-06-12 05:03:00,
2013-06-12 01:08:00,66.0,57.2,27.91,East,90,0.0,0.0,74,0.00,,,0.00,WSDL version 420,2013-06-12 05:08:00,
2013-06-12 01:13:00,66.2,57.4,27.91,SSE,158,0.0,0.0,74,0.00,,,0.00,WSDL version 420,2013-06-12 05:13:00,
2013-06-12 01:18:00,66.2,57.7,27.91,SSE,165,0.0,0.0,74,0.00,,,0.00,WSDL version 420,2013-06-12 05:18:00,
2013-06-12 01:23:00,66.3,57.7,27.91,ENE,75,0.0,0.0,74,0.00,,,0.00,WSDL version 420,2013-06-12 05:23:00,
2013-06-12 01:28:00,66.4,57.9,27.91,East,83,0.3,2.0,74,0.00,,,0.00,WSDL version 420,2013-06-12 05:28:00,
2013-06-12 01:33:00,66.2,57.3,27.91,NNE,30,2.5,3.6,73,0.00,,,0.00,WSDL version 420,2013-06-12 05:33:00,
2013-06-12 01:38:00,66.0,57.5,27.91,NE,38,0.6,3.6,74,0.00,,,0.00,WSDL version 420,2013-06-12 05:38:00,
2013-06-12 01:43:00,66.1,57.6,27.91,NNE,23,0.0,2.2,74,0.00,,,0.00,WSDL version 420,2013-06-12 05:43:00,
2013-06-12 01:48:00,65.9,57.4,27.91,SSW,203,0.0,1.6,74,0.00,,,0.00,WSDL version 420,2013-06-12 05:48:00,
2013-06-12 01:53:00,65.8,57.3,27.91,SSW,203,0.0,1.6,74,0.00,,,0.00,WSDL version 420,2013-06-12 05:53:00,
2013-06-12 01:58:00,65.8,57.3,27.91,SSW,203,0.0,0.0,74,0.00,,,0.00,WSDL version 420,2013-06-12 05:58:00,
2013-06-12 02:03:00,65.8,57.5,27.91,SSW,203,0.0,0.0,75,0.00,,,0.00,WSDL version 420,2013-06-12 06:03:00,
2013-06-12 02:08:00,66.1,57.9,27.91,NNE,23,0.0,0.0,75,0.00,,,0.00,WSDL version 420,2013-06-12 06:08:00,
2013-06-12 02:13:00,66.1,58.0,27.91,NNE,23,0.0,0.0,75,0.00,,,0.00,WSDL version 420,2013-06-12 06:13:00,
2013-06-12 02:18:00,66.2,58.1,27.91,NNE,23,0.0,0.0,75,0.00,,,0.00,WSDL version 420,2013-06-12 06:18:00,
2013-06-12 02:23:00,66.1,57.9,27.91,NNE,23,0.0,0.0,75,0.00,,,0.00,WSDL version 420,2013-06-12 06:23:00,
2013-06-12 02:28:00,65.8,57.7,27.91,NNE,23,0.0,0.0,75,0.00,,,0.00,WSDL version 420,2013-06-12 06:28:00,
2013-06-12 02:33:00,65.8,57.7,27.91,NNE,23,0.0,0.0,75,0.00,,,0.00,WSDL version 420,2013-06-12 06:33:00,
2013-06-12 02:38:00,65.8,57.7,27.91,NNE,23,0.0,0.0,75,0.00,,,0.00,WSDL version 420,2013-06-12 06:38:00,
2013-06-12 02:43:00,66.0,57.9,27.91,NNE,23,0.0,0.0,75,0.00,,,0.00,WSDL version 420,2013-06-12 06:43:00,
2013-06-12 02:48:00,66.0,57.8,27.91,NE,45,0.0,0.0,75,0.00,,,0.00,WSDL version 420,2013-06-12 06:48:00,
2013-06-12 02:53:00,65.8,57.8,27.91,NE,45,0.0,0.0,76,0.00,,,0.00,WSDL version 420,2013-06-12 06:53:00,
2013-06-12 02:58:00,65.8,58.1,27.91,NE,45,0.0,0.0,76,0.00,,,0.00,WSDL version 420,2013-06-12 06:58:00,
2013-06-12 03:03:00,65.9,58.1,27.91,NE,45,0.0,0.0,76,0.00,,,0.00,WSDL version 420,2013-06-12 07:03:00,
2013-06-12 03:08:00,65.8,58.1,27.91,ESE,107,0.0,0.0,76,0.00,,,0.00,WSDL version 420,2013-06-12 07:08:00,
2013-06-12 03:13:00,65.8,58.1,27.91,ESE,113,0.0,0.0,76,0.00,,,0.00,WSDL version 420,2013-06-12 07:13:00,
2013-06-12 03:18:00,65.8,58.0,27.91,East,90,0.0,0.0,76,0.00,,,0.00,WSDL version 420,2013-06-12 07:18:00,
2013-06-12 03:23:00,65.7,57.9,27.91,East,90,0.0,0.0,76,0.00,,,0.00,WSDL version 420,2013-06-12 07:23:00,
2013-06-12 03:28:00,65.7,58.3,27.91,East,90,0.0,0.0,77,0.00,,,0.00,WSDL version 420,2013-06-12 07:28:00,
2013-06-12 03:33:00,65.7,58.3,27.91,SSW,203,0.0,0.0,77,0.00,,,0.00,WSDL version 420,2013-06-12 07:33:00,
2013-06-12 03:38:00,65.7,58.3,27.91,SSW,203,0.0,0.0,77,0.00,,,0.00,WSDL version 420,2013-06-12 07:38:00,
2013-06-12 03:43:00,65.5,58.1,27.91,South,169,0.0,0.0,77,0.00,,,0.00,WSDL version 420,2013-06-12 07:43:00,
2013-06-12 03:48:00,65.6,58.2,27.91,ESE,113,0.0,0.0,77,0.00,,,0.00,WSDL version 420,2013-06-12 07:48:00,
2013-06-12 03:53:00,65.5,58.1,27.91,ESE,113,0.0,0.0,77,0.00,,,0.00,WSDL version 420,2013-06-12 07:53:00,
2013-06-12 03:58:00,65.5,58.1,27.91,ESE,105,0.0,0.0,77,0.00,,,0.00,WSDL version 420,2013-06-12 07:58:00,
2013-06-12 04:03:00,65.7,58.3,27.91,SSW,203,0.0,0.0,77,0.00,,,0.00,WSDL version 420,2013-06-12 08:03:00,
2013-06-12 04:08:00,65.5,58.1,27.91,East,90,0.0,0.0,77,0.00,,,0.00,WSDL version 420,2013-06-12 08:08:00,
2013-06-12 04:13:00,65.1,57.7,27.91,East,90,0.0,0.0,77,0.00,,,0.00,WSDL version 420,2013-06-12 08:13:00,
2013-06-12 04:18:00,65.2,58.1,27.91,East,90,0.0,0.0,78,0.00,,,0.00,WSDL version 420,2013-06-12 08:18:00,
2013-06-12 04:23:00,65.2,58.2,27.91,East,90,0.0,0.0,78,0.00,,,0.00,WSDL version 420,2013-06-12 08:23:00,
2013-06-12 04:28:00,65.1,58.1,27.91,East,90,0.0,0.0,78,0.00,,,0.00,WSDL version 420,2013-06-12 08:28:00,
2013-06-12 04:33:00,64.9,57.9,27.91,East,90,0.0,0.0,78,0.00,,,0.00,WSDL version 420,2013-06-12 08:33:00,
2013-06-12 04:38:00,64.8,57.7,27.91,East,90,0.0,0.0,78,0.00,,,0.00,WSDL version 420,2013-06-12 08:38:00,
2013-06-12 04:43:00,64.7,57.7,27.91,East,90,0.0,0.0,78,0.00,,,0.00,WSDL version 420,2013-06-12 08:43:00,
2013-06-12 04:48:00,64.8,57.9,27.91,East,90,0.0,0.0,79,0.00,,,0.00,WSDL version 420,2013-06-12 08:48:00,
2013-06-12 04:53:00,64.8,58.1,27.91,East,90,0.0,0.0,79,0.00,,,0.00,WSDL version 420,2013-06-12 08:53:00,
2013-06-12 04:58:00,64.8,58.1,27.91,East,90,0.0,0.0,79,0.00,,,0.00,WSDL version 420,2013-06-12 08:58:00,
2013-06-12 05:03:00,64.7,58.0,27.91,East,90,0.0,0.0,79,0.00,,,0.00,WSDL version 420,2013-06-12 09:03:00,
2013-06-12 05:08:00,64.6,57.9,27.91,East,90,0.0,0.0,79,0.00,,,0.00,WSDL version 420,2013-06-12 09:08:00,
2013-06-12 05:13:00,64.5,57.5,27.91,East,90,0.0,0.0,78,0.00,,,0.00,WSDL version 420,2013-06-12 09:13:00,
2013-06-12 05:18:00,64.5,57.5,27.91,East,90,0.0,0.0,78,-99.99,,,-99.99,WSDL version 420,2013-06-12 09:18:00,
2013-06-12 05:23:00,64.2,57.6,27.91,East,90,0.0,0.0,79,0.00,,,0.00,WSDL version 420,2013-06-12 09:23:00,
2013-06-12 05:28:00,64.2,57.6,27.91,East,90,0.0,0.0,79,-99.99,,,-99.99,WSDL version 420,2013-06-12 09:28:00,
2013-06-12 05:33:00,64.2,57.6,27.91,East,90,0.0,0.0,79,0.00,,,0.00,WSDL version 420,2013-06-12 09:33:00,
2013-06-12 05:38:00,64.2,57.6,27.91,East,90,0.0,0.0,79,0.00,,,0.00,WSDL version 420,2013-06-12 09:38:00,
2013-06-12 05:43:00,64.2,57.6,27.91,East,90,0.0,0.0,79,0.00,,,0.00,WSDL version 420,2013-06-12 09:43:00,
2013-06-12 05:48:00,64.2,57.6,27.91,East,90,0.0,0.0,79,0.00,,,0.00,WSDL version 420,2013-06-12 09:48:00,
2013-06-12 05:53:00,64.1,57.8,27.91,East,90,0.0,0.0,80,0.00,,,0.00,WSDL version 420,2013-06-12 09:53:00,
2013-06-12 05:58:00,64.0,57.8,27.91,East,90,0.0,0.0,80,0.00,,,0.00,WSDL version 420,2013-06-12 09:58:00,
2013-06-12 06:03:00,64.1,57.8,27.91,East,96,0.0,0.0,80,0.00,,,0.00,WSDL version 420,2013-06-12 10:03:00,
2013-06-12 06:08:00,64.2,57.9,27.91,East,90,0.0,0.0,80,0.00,,,0.00,WSDL version 420,2013-06-12 10:08:00,
2013-06-12 06:13:00,64.4,58.1,27.91,ESE,113,0.0,0.0,80,0.00,,,0.00,WSDL version 420,2013-06-12 10:13:00,
2013-06-12 06:18:00,64.3,58.0,27.91,SSE,158,0.0,0.0,80,0.00,,,0.00,WSDL version 420,2013-06-12 10:18:00,
2013-06-12 06:23:00,64.3,58.0,27.91,SSE,158,0.0,0.0,80,0.00,,,0.00,WSDL version 420,2013-06-12 10:23:00,
2013-06-12 06:28:00,64.3,58.0,27.91,SSE,158,0.0,0.0,80,0.00,,,0.00,WSDL version 420,2013-06-12 10:28:00,
2013-06-12 06:33:00,64.4,58.1,27.91,SSE,158,0.0,0.0,80,0.00,,,0.00,WSDL version 420,2013-06-12 10:33:00,
2013-06-12 06:38:00,64.5,58.2,27.91,SE,146,0.0,0.0,80,0.00,,,0.00,WSDL version 420,2013-06-12 10:38:00,
2013-06-12 06:43:00,64.6,58.3,27.91,ESE,113,0.0,0.0,80,0.00,,,0.00,WSDL version 420,2013-06-12 10:43:00,
2013-06-12 06:48:00,64.6,58.3,27.91,East,90,0.0,0.0,80,0.00,,,0.00,WSDL version 420,2013-06-12 10:48:00,
2013-06-12 06:53:00,64.8,58.5,27.91,NNE,30,0.0,0.0,80,0.00,,,0.00,WSDL version 420,2013-06-12 10:53:00,
2013-06-12 06:58:00,65.1,59.1,27.91,SE,135,0.0,0.0,81,0.00,,,0.00,WSDL version 420,2013-06-12 10:58:00,
2013-06-12 07:03:00,65.1,59.2,27.91,SSE,158,0.0,0.0,81,0.00,,,0.00,WSDL version 420,2013-06-12 11:03:00,
2013-06-12 07:08:00,65.2,59.3,27.91,SSE,158,0.0,0.0,81,0.00,,,0.00,WSDL version 420,2013-06-12 11:08:00,
2013-06-12 07:13:00,65.4,59.4,27.91,East,90,0.0,0.0,81,0.00,,,0.00,WSDL version 420,2013-06-12 11:13:00,
2013-06-12 07:18:00,65.5,59.7,27.91,SE,135,0.0,0.0,82,0.00,,,0.00,WSDL version 420,2013-06-12 11:18:00,
2013-06-12 07:23:00,65.8,60.3,27.91,WNW,293,0.0,0.0,82,0.00,,,0.00,WSDL version 420,2013-06-12 11:23:00,
2013-06-12 07:28:00,66.0,60.2,27.91,WNW,293,0.0,0.0,81,0.00,,,0.00,WSDL version 420,2013-06-12 11:28:00,
2013-06-12 07:33:00,66.2,60.2,27.91,WNW,293,0.0,0.0,81,0.00,,,0.00,WSDL version 420,2013-06-12 11:33:00,
2013-06-12 07:38:00,66.2,60.2,27.94,SW,233,0.0,0.0,81,0.00,,,0.00,WSDL version 420,2013-06-12 11:38:00,
2013-06-12 07:43:00,66.3,60.3,27.94,SSW,203,0.0,0.0,81,0.00,,,0.00,WSDL version 420,2013-06-12 11:43:00,
2013-06-12 07:48:00,66.4,60.4,27.94,SSW,203,0.0,0.0,81,0.00,,,0.00,WSDL version 420,2013-06-12 11:48:00,
2013-06-12 07:53:00,66.4,60.4,27.94,WNW,293,0.0,0.0,81,0.00,,,0.00,WSDL version 420,2013-06-12 11:53:00,
2013-06-12 07:58:00,66.6,60.6,27.94,WNW,293,0.0,0.0,81,0.00,,,0.00,WSDL version 420,2013-06-12 11:58:00,
2013-06-12 08:03:00,66.6,60.6,27.94,WNW,293,0.0,0.0,81,0.00,,,0.00,WSDL version 420,2013-06-12 12:03:00,
2013-06-12 08:08:00,66.6,60.6,27.94,WSW,248,0.0,0.0,81,0.00,,,0.00,WSDL version 420,2013-06-12 12:08:00,
2013-06-12 08:13:00,66.6,60.6,27.94,WSW,248,0.0,0.0,81,-99.99,,,-99.99,WSDL version 420,2013-06-12 12:13:00,
2013-06-12 08:18:00,66.6,60.6,27.94,WSW,248,0.0,0.0,81,0.00,,,0.00,WSDL version 420,2013-06-12 12:18:00,
2013-06-12 08:23:00,66.6,60.6,27.94,SSE,163,0.4,0.9,81,0.00,,,0.00,WSDL version 420,2013-06-12 12:23:00,
2013-06-12 08:28:00,66.7,60.7,27.94,NE,53,0.0,0.9,81,0.00,,,0.00,WSDL version 420,2013-06-12 12:28:00,
2013-06-12 08:33:00,67.0,61.0,27.94,SE,135,1.1,1.3,81,0.00,,,0.00,WSDL version 420,2013-06-12 12:33:00,
2013-06-12 08:38:00,67.2,61.2,27.94,SSE,158,1.6,2.2,81,0.00,,,0.00,WSDL version 420,2013-06-12 12:38:00,
2013-06-12 08:43:00,67.3,61.4,27.94,SE,124,0.7,2.2,81,0.00,,,0.00,WSDL version 420,2013-06-12 12:43:00,
2013-06-12 08:48:00,67.6,61.6,27.94,ESE,113,0.4,1.6,81,0.00,,,0.00,WSDL version 420,2013-06-12 12:48:00,
2013-06-12 08:53:00,67.9,61.9,27.91,West,270,0.0,2.0,81,0.00,,,0.00,WSDL version 420,2013-06-12 12:53:00,
2013-06-12 08:58:00,68.1,62.1,27.91,SW,218,0.0,2.0,81,0.00,,,0.00,WSDL version 420,2013-06-12 12:58:00,
2013-06-12 09:03:00,68.5,62.3,27.91,NNW,345,0.9,2.0,80,0.00,,,0.00,WSDL version 420,2013-06-12 13:03:00,
2013-06-12 09:08:00,68.8,62.4,27.94,WNW,293,0.0,3.8,80,0.00,,,0.00,WSDL version 420,2013-06-12 13:08:00,
2013-06-12 09:13:00,69.1,62.7,27.94,West,263,0.4,3.8,80,0.00,,,0.00,WSDL version 420,2013-06-12 13:13:00,
2013-06-12 09:18:00,69.4,63.0,27.94,SSE,158,1.3,3.4,80,0.00,,,0.00,WSDL version 420,2013-06-12 13:18:00,
2013-06-12 09:23:00,69.8,63.1,27.94,West,278,2.5,2.5,79,0.00,,,0.00,WSDL version 420,2013-06-12 13:23:00,
2013-06-12 09:28:00,70.0,63.2,27.94,South,188,0.3,2.5,79,0.00,,,0.00,WSDL version 420,2013-06-12 13:28:00,
2013-06-12 09:33:00,70.3,63.1,27.94,NNW,343,1.0,3.1,78,0.00,,,0.00,WSDL version 420,2013-06-12 13:33:00,
2013-06-12 09:38:00,70.4,63.2,27.94,WSW,248,0.7,3.1,78,0.00,,,0.00,WSDL version 420,2013-06-12 13:38:00,
2013-06-12 09:43:00,70.7,63.5,27.94,WNW,293,3.6,4.0,78,0.00,,,0.00,WSDL version 420,2013-06-12 13:43:00,
2013-06-12 09:48:00,71.1,63.8,27.94,WNW,293,1.2,4.0,77,0.00,,,0.00,WSDL version 420,2013-06-12 13:48:00,
2013-06-12 09:53:00,71.3,63.7,27.91,ESE,113,3.1,5.4,77,0.00,,,0.00,WSDL version 420,2013-06-12 13:53:00,
2013-06-12 09:58:00,71.6,63.8,27.91,SW,233,2.3,5.4,76,0.00,,,0.00,WSDL version 420,2013-06-12 13:58:00,
2013-06-12 10:03:00,72.0,64.0,27.91,WNW,293,2.2,3.8,76,0.00,,,0.00,WSDL version 420,2013-06-12 14:03:00,
2013-06-12 10:08:00,72.5,64.5,27.91,NNW,332,0.6,2.7,76,0.00,,,0.00,WSDL version 420,2013-06-12 14:08:00,
2013-06-12 10:13:00,72.8,64.8,27.91,WSW,240,3.0,3.6,76,0.00,,,0.00,WSDL version 420,2013-06-12 14:13:00,
2013-06-12 10:18:00,73.2,65.1,27.91,WNW,293,0.9,3.6,75,0.00,,,0.00,WSDL version 420,2013-06-12 14:18:00,
2013-06-12 10:23:00,73.6,65.2,27.91,WNW,293,4.0,4.7,75,0.00,,,0.00,WSDL version 420,2013-06-12 14:23:00,
2013-06-12 10:28:00,73.9,65.5,27.91,North,11,1.0,4.7,75,0.00,,,0.00,WSDL version 420,2013-06-12 14:28:00,
2013-06-12 10:33:00,74.5,65.9,27.91,WNW,298,1.8,3.4,74,0.00,,,0.00,WSDL version 420,2013-06-12 14:33:00,
2013-06-12 10:38:00,74.8,65.9,27.91,SSE,158,1.3,3.4,74,0.00,,,0.00,WSDL version 420,2013-06-12 14:38:00,
2013-06-12 10:43:00,75.0,66.0,27.91,WNW,293,2.2,2.9,73,0.00,,,0.00,WSDL version 420,2013-06-12 14:43:00,
2013-06-12 10:48:00,75.4,66.1,27.91,WNW,293,2.4,3.6,73,-99.99,,,-99.99,WSDL version 420,2013-06-12 14:48:00,
2013-06-12 10:53:00,75.7,66.2,27.91,NE,38,2.5,3.6,73,-99.99,,,-99.99,WSDL version 420,2013-06-12 14:53:00,
2013-06-12 10:58:00,76.2,66.5,27.91,WNW,300,1.0,2.9,72,-99.99,,,-99.99,WSDL version 420,2013-06-12 14:58:00,
2013-06-12 11:03:00,76.6,66.9,27.91,East,79,0.7,2.9,72,-99.99,,,-99.99,WSDL version 420,2013-06-12 15:03:00,
2013-06-12 11:10:00,77.3,67.3,27.91,NW,323,1.6,3.1,71,-99.99,,,-99.99,WSDL version 420,2013-06-12 15:10:00,
2013-06-12 11:15:00,77.4,67.2,27.91,NW,323,2.0,4.7,71,0.00,,,0.00,WSDL version 420,2013-06-12 15:15:00,
2013-06-12 11:25:00,77.6,67.0,27.91,SE,128,2.0,3.8,70,0.00,,,0.00,WSDL version 420,2013-06-12 15:25:00,
2013-06-12 11:30:00,78.0,67.4,27.91,North,351,2.3,3.1,70,-99.99,,,-99.99,WSDL version 420,2013-06-12 15:30:00,
2013-06-12 11:35:00,78.4,67.6,27.91,WSW,255,1.1,4.0,69,0.00,,,0.00,WSDL version 420,2013-06-12 15:35:00,
2013-06-12 11:40:00,78.7,67.7,27.91,East,83,1.8,4.0,69,0.00,,,0.00,WSDL version 420,2013-06-12 15:40:00,
2013-06-12 11:46:00,79.1,67.6,27.91,West,263,2.3,4.9,68,0.00,,,0.00,WSDL version 420,2013-06-12 15:46:00,
2013-06-12 11:51:00,79.2,67.8,27.91,WNW,293,0.7,3.6,68,0.00,,,0.00,WSDL version 420,2013-06-12 15:51:00,
2013-06-12 11:56:00,79.7,68.2,27.91,WNW,287,0.9,2.7,68,-99.99,,,-99.99,WSDL version 420,2013-06-12 15:56:00,
2013-06-12 12:01:00,80.2,68.5,27.91,NNE,23,2.7,3.1,67,0.00,,,0.00,WSDL version 420,2013-06-12 16:01:00,
2013-06-12 12:06:00,80.4,68.5,27.91,West,278,1.0,3.1,67,-99.99,,,-99.99,WSDL version 420,2013-06-12 16:06:00,
2013-06-12 12:11:00,80.7,68.3,27.91,West,263,2.2,3.8,66,-99.99,,,-99.99,WSDL version 420,2013-06-12 16:11:00,
2013-06-12 12:16:00,80.3,67.9,27.91,North,8,2.7,3.8,66,0.00,,,0.00,WSDL version 420,2013-06-12 16:16:00,
2013-06-12 12:21:00,80.2,67.9,27.91,West,270,3.6,3.8,66,-99.99,,,-99.99,WSDL version 420,2013-06-12 16:21:00,
2013-06-12 12:26:00,80.4,67.9,27.91,WNW,293,1.7,3.8,65,0.00,,,0.00,WSDL version 420,2013-06-12 16:26:00,
2013-06-12 12:31:00,80.3,67.5,27.91,ENE,75,2.3,3.6,65,0.00,,,0.00,WSDL version 420,2013-06-12 16:31:00,
2013-06-12 12:36:00,80.1,67.2,27.91,NNW,332,1.2,3.6,65,-99.99,,,-99.99,WSDL version 420,2013-06-12 16:36:00,
2013-06-12 12:41:00,80.2,67.8,27.91,North,353,0.4,2.7,66,-99.99,,,-99.99,WSDL version 420,2013-06-12 16:41:00,
2013-06-12 12:46:00,80.2,67.8,27.91,NW,326,2.3,2.7,66,-99.99,,,-99.99,WSDL version 420,2013-06-12 16:46:00,
2013-06-12 12:51:00,80.2,67.9,27.91,North,353,4.1,5.6,66,-99.99,,,-99.99,WSDL version 420,2013-06-12 16:51:00,
2013-06-12 13:01:00,80.5,67.7,27.91,NW,315,2.2,2.7,65,-99.99,,,-99.99,WSDL version 420,2013-06-12 17:01:00,
2013-06-12 13:06:00,80.7,67.9,27.91,East,98,0.8,2.7,65,-99.99,,,-99.99,WSDL version 420,2013-06-12 17:06:00,
2013-06-12 13:11:00,80.7,67.8,27.91,South,173,1.6,3.8,65,-99.99,,,-99.99,WSDL version 420,2013-06-12 17:11:00,
2013-06-12 13:16:00,80.8,67.9,27.91,ENE,75,2.5,3.8,65,0.00,,,0.00,WSDL version 420,2013-06-12 17:16:00,
2013-06-12 13:21:00,80.8,67.9,27.91,NW,308,4.0,4.3,65,-99.99,,,-99.99,WSDL version 420,2013-06-12 17:21:00,
2013-06-12 13:26:00,80.8,67.9,27.91,WNW,293,1.7,4.3,65,-99.99,,,-99.99,WSDL version 420,2013-06-12 17:26:00,
2013-06-12 13:31:00,80.8,67.9,27.91,SW,236,1.0,5.4,65,-99.99,,,-99.99,WSDL version 420,2013-06-12 17:31:00,
2013-06-12 13:38:00,80.9,68.0,27.91,WNW,298,1.6,5.4,65,-99.99,,,-99.99,WSDL version 420,2013-06-12 17:38:00,
2013-06-12 13:43:00,81.0,67.9,27.91,SW,236,1.2,2.7,64,-99.99,,,-99.99,WSDL version 420,2013-06-12 17:43:00,
2013-06-12 13:48:00,80.8,67.7,27.91,North,360,1.1,2.7,65,-99.99,,,-99.99,WSDL version 420,2013-06-12 17:48:00,
2013-06-12 13:53:00,81.0,67.9,27.91,NNW,332,2.7,3.8,65,-99.99,,,-99.99,WSDL version 420,2013-06-12 17:53:00,
2013-06-12 13:58:00,81.3,68.0,27.91,North,8,1.6,3.8,64,-99.99,,,-99.99,WSDL version 420,2013-06-12 17:58:00,
2013-06-12 14:03:00,82.1,68.8,27.91,North,360,2.7,3.4,64,0.00,,,0.00,WSDL version 420,2013-06-12 18:03:00,
2013-06-12 14:08:00,82.7,69.0,27.91,NE,38,1.6,3.1,63,0.00,,,0.00,WSDL version 420,2013-06-12 18:08:00,
2013-06-12 14:13:00,82.6,68.5,27.91,NNW,338,2.1,3.4,62,0.00,,,0.00,WSDL version 420,2013-06-12 18:13:00,
2013-06-12 14:18:00,83.0,69.1,27.91,NNW,338,1.6,3.4,63,-99.99,,,-99.99,WSDL version 420,2013-06-12 18:18:00,
2013-06-12 14:23:00,83.5,69.3,27.91,NW,315,1.6,3.4,62,-99.99,,,-99.99,WSDL version 420,2013-06-12 18:23:00,
2013-06-12 14:28:00,83.4,68.5,27.91,West,263,1.6,2.9,60,-99.99,,,-99.99,WSDL version 420,2013-06-12 18:28:00,
2013-06-12 14:33:00,83.4,68.2,27.91,WNW,300,2.2,3.6,60,-99.99,,,-99.99,WSDL version 420,2013-06-12 18:33:00,
2013-06-12 14:38:00,83.2,67.9,27.91,NW,323,2.6,3.8,60,-99.99,,,-99.99,WSDL version 420,2013-06-12 18:38:00,
2013-06-12 14:43:00,83.6,68.1,27.91,NE,45,2.1,3.8,59,-99.99,,,-99.99,WSDL version 420,2013-06-12 18:43:00,
2013-06-12 14:48:00,83.8,68.1,27.91,WNW,293,2.5,3.4,59,-99.99,,,-99.99,WSDL version 420,2013-06-12 18:48:00,
2013-06-12 14:53:00,84.3,67.9,27.91,NNW,343,1.6,3.4,58,-99.99,,,-99.99,WSDL version 420,2013-06-12 18:53:00,
2013-06-12 14:58:00,84.7,68.5,27.91,North,8,1.6,2.9,57,-99.99,,,-99.99,WSDL version 420,2013-06-12 18:58:00,
2013-06-12 15:03:00,85.1,68.0,27.91,West,264,1.0,2.9,56,-99.99,,,-99.99,WSDL version 420,2013-06-12 19:03:00,
2013-06-12 15:08:00,85.2,67.9,27.91,NE,45,1.7,2.0,56,-99.99,,,-99.99,WSDL version 420,2013-06-12 19:08:00,
2013-06-12 15:13:00,85.4,67.9,27.91,NE,56,2.7,4.0,55,-99.99,,,-99.99,WSDL version 420,2013-06-12 19:13:00,
2013-06-12 15:18:00,85.6,67.6,27.91,WNW,287,2.6,4.0,54,-99.99,,,-99.99,WSDL version 420,2013-06-12 19:18:00,
2013-06-12 15:23:00,85.6,67.6,27.88,NNE,23,1.8,3.6,55,-99.99,,,-99.99,WSDL version 420,2013-06-12 19:23:00,
2013-06-12 15:28:00,85.5,66.4,27.88,NNE,23,1.0,2.9,53,-99.99,,,-99.99,WSDL version 420,2013-06-12 19:28:00,
2013-06-12 15:33:00,85.8,66.9,27.88,NNE,14,2.1,2.9,54,-99.99,,,-99.99,WSDL version 420,2013-06-12 19:33:00,
2013-06-12 15:38:00,85.8,66.9,27.88,North,353,1.2,3.1,53,-99.99,,,-99.99,WSDL version 420,2013-06-12 19:38:00,
2013-06-12 15:43:00,85.5,66.6,27.88,NNE,23,1.9,3.1,54,-99.99,,,-99.99,WSDL version 420,2013-06-12 19:43:00,
2013-06-12 15:48:00,86.0,67.1,27.88,SSW,203,2.0,3.1,53,-99.99,,,-99.99,WSDL version 420,2013-06-12 19:48:00,
2013-06-12 15:53:00,86.6,67.4,27.88,NW,315,2.5,3.1,53,-99.99,,,-99.99,WSDL version 420,2013-06-12 19:53:00,
2013-06-12 15:58:00,86.6,67.3,27.88,ESE,113,1.7,3.8,53,0.00,,,0.00,WSDL version 420,2013-06-12 19:58:00,
2013-06-12 16:03:00,86.7,67.3,27.88,West,270,1.8,3.8,52,-99.99,,,-99.99,WSDL version 420,2013-06-12 20:03:00,
2013-06-12 16:08:00,86.7,67.1,27.88,ENE,68,0.3,3.6,52,-99.99,,,-99.99,WSDL version 420,2013-06-12 20:08:00,
2013-06-12 16:13:00,86.8,66.9,27.88,WSW,248,2.3,3.6,51,0.00,,,0.00,WSDL version 420,2013-06-12 20:13:00,
2013-06-12 16:18:00,86.8,66.7,27.88,NNW,345,1.6,2.5,52,-99.99,,,-99.99,WSDL version 420,2013-06-12 20:18:00,
2013-06-12 16:23:00,87.1,67.3,27.88,ENE,68,2.2,2.7,52,-99.99,,,-99.99,WSDL version 420,2013-06-12 20:23:00,
2013-06-12 16:28:00,87.1,67.1,27.88,South,188,0.0,2.7,52,-99.99,,,-99.99,WSDL version 420,2013-06-12 20:28:00,
2013-06-12 16:33:00,87.1,67.1,27.88,East,83,1.4,3.6,51,-99.99,,,-99.99,WSDL version 420,2013-06-12 20:33:00,
2013-06-12 16:38:00,87.3,67.3,27.85,WNW,300,1.7,3.6,51,-99.99,,,-99.99,WSDL version 420,2013-06-12 20:38:00,
2013-06-12 16:43:00,87.1,66.2,27.85,East,90,0.9,2.9,50,-99.99,,,-99.99,WSDL version 420,2013-06-12 20:43:00,
2013-06-12 16:48:00,87.2,66.9,27.85,WNW,284,2.6,3.4,51,-99.99,,,-99.99,WSDL version 420,2013-06-12 20:48:00,
2013-06-12 16:53:00,86.9,65.8,27.85,East,101,1.9,3.4,49,-99.99,,,-99.99,WSDL version 420,2013-06-12 20:53:00,
2013-06-12 16:58:00,86.9,65.8,27.85,South,173,1.0,2.7,50,-99.99,,,-99.99,WSDL version 420,2013-06-12 20:58:00,
2013-06-12 17:03:00,86.9,66.6,27.85,NE,51,1.6,3.8,51,-99.99,,,-99.99,WSDL version 420,2013-06-12 21:03:00,
2013-06-12 17:08:00,86.8,66.6,27.85,SSW,195,2.2,4.3,51,-99.99,,,-99.99,WSDL version 420,2013-06-12 21:08:00,
2013-06-12 17:13:00,86.7,66.4,27.85,SSE,158,0.8,4.3,51,-99.99,,,-99.99,WSDL version 420,2013-06-12 21:13:00,
2013-06-12 17:18:00,86.5,65.7,27.85,North,353,1.3,2.9,50,-99.99,,,-99.99,WSDL version 420,2013-06-12 21:18:00,
2013-06-12 17:23:00,86.5,65.8,27.85,SW,233,1.4,2.9,50,-99.99,,,-99.99,WSDL version 420,2013-06-12 21:23:00,
2013-06-12 17:28:00,86.5,65.7,27.85,East,90,2.5,2.9,50,-99.99,,,-99.99,WSDL version 420,2013-06-12 21:28:00,
2013-06-12 17:33:00,86.3,65.3,27.85,NNE,23,2.2,2.9,49,-99.99,,,-99.99,WSDL version 420,2013-06-12 21:33:00,
2013-06-12 17:38:00,86.2,65.2,27.85,WSW,248,1.7,2.9,49,-99.99,,,-99.99,WSDL version 420,2013-06-12 21:38:00,
2013-06-12 17:43:00,86.4,65.3,27.85,SSW,195,2.2,2.9,50,-99.99,,,-99.99,WSDL version 420,2013-06-12 21:43:00,
2013-06-12 17:53:00,86.2,65.2,27.85,NNW,345,2.5,3.1,49,-99.99,,,-99.99,WSDL version 420,2013-06-12 21:53:00,
2013-06-12 17:58:00,86.0,65.0,27.85,NNE,23,1.3,3.1,50,-99.99,,,-99.99,WSDL version 420,2013-06-12 21:58:00,
2013-06-12 18:03:00,85.9,65.2,27.85,North,353,2.2,2.7,50,-99.99,,,-99.99,WSDL version 420,2013-06-12 22:03:00,
2013-06-12 18:08:00,85.9,65.5,27.85,WSW,255,2.3,4.7,51,-99.99,,,-99.99,WSDL version 420,2013-06-12 22:08:00,
2013-06-12 18:13:00,85.8,65.6,27.85,SSE,158,0.9,4.7,51,-99.99,,,-99.99,WSDL version 420,2013-06-12 22:13:00,
2013-06-12 18:18:00,86.0,65.8,27.85,SE,128,2.8,2.9,51,-99.99,,,-99.99,WSDL version 420,2013-06-12 22:18:00,
2013-06-12 18:23:00,85.8,66.0,27.85,NE,45,2.4,2.9,52,-99.99,,,-99.99,WSDL version 420,2013-06-12 22:23:00,
2013-06-12 18:28:00,85.6,65.9,27.85,NW,323,0.3,2.5,52,-99.99,,,-99.99,WSDL version 420,2013-06-12 22:28:00,
2013-06-12 18:33:00,85.4,66.0,27.85,SSW,203,1.6,2.0,53,-99.99,,,-99.99,WSDL version 420,2013-06-12 22:33:00,
2013-06-12 18:38:00,85.2,66.1,27.85,West,259,1.5,3.1,53,-99.99,,,-99.99,WSDL version 420,2013-06-12 22:38:00,
2013-06-12 18:43:00,84.9,65.8,27.85,ENE,75,2.5,3.1,53,-99.99,,,-99.99,WSDL version 420,2013-06-12 22:43:00,
2013-06-12 18:48:00,85.0,66.5,27.85,North,360,1.3,3.1,54,-99.99,,,-99.99,WSDL version 420,2013-06-12 22:48:00,
2013-06-12 18:53:00,84.9,66.4,27.82,SSE,158,0.6,2.0,54,-99.99,,,-99.99,WSDL version 420,2013-06-12 22:53:00,
2013-06-12 18:58:00,85.0,67.0,27.82,SW,219,0.0,2.2,55,-99.99,,,-99.99,WSDL version 420,2013-06-12 22:58:00,
2013-06-12 19:03:00,85.0,67.0,27.82,WNW,293,0.9,2.2,55,-99.99,,,-99.99,WSDL version 420,2013-06-12 23:03:00,
2013-06-12 19:08:00,84.7,67.1,27.82,WNW,293,1.3,2.2,56,-99.99,,,-99.99,WSDL version 420,2013-06-12 23:08:00,
2013-06-12 19:13:00,84.6,67.2,27.82,SW,214,1.5,2.2,56,-99.99,,,-99.99,WSDL version 420,2013-06-12 23:13:00,
2013-06-12 19:18:00,84.4,67.0,27.82,East,101,1.7,2.5,56,-99.99,,,-99.99,WSDL version 420,2013-06-12 23:18:00,
2013-06-12 19:23:00,84.3,66.9,27.82,South,169,1.6,2.5,56,-99.99,,,-99.99,WSDL version 420,2013-06-12 23:23:00,
2013-06-12 19:28:00,84.1,67.0,27.82,South,188,0.4,2.5,57,-99.99,,,-99.99,WSDL version 420,2013-06-12 23:28:00,
2013-06-12 19:33:00,83.9,67.0,27.82,SSW,197,0.0,2.5,57,-99.99,,,-99.99,WSDL version 420,2013-06-12 23:33:00,
2013-06-12 19:38:00,83.8,66.9,27.82,ESE,120,0.0,2.5,57,-99.99,,,-99.99,WSDL version 420,2013-06-12 23:38:00,
2013-06-12 19:43:00,83.7,67.3,27.82,SSW,203,0.6,2.0,58,-99.99,,,-99.99,WSDL version 420,2013-06-12 23:43:00,
2013-06-12 19:48:00,83.6,67.3,27.82,SSE,158,2.5,2.7,58,-99.99,,,-99.99,WSDL version 420,2013-06-12 23:48:00,
2013-06-12 19:53:00,83.4,66.8,27.85,ENE,68,2.7,2.9,58,-99.99,,,-99.99,WSDL version 420,2013-06-12 23:53:00,
2013-06-12 19:58:00,83.3,66.5,27.85,SSW,194,0.0,2.9,57,-99.99,,,-99.99,WSDL version 420,2013-06-12 23:58:00,
2013-06-12 20:03:00,83.1,66.5,27.85,South,180,1.2,2.2,57,-99.99,,,-99.99,WSDL version 420,2013-06-13 00:03:00,
2013-06-12 20:08:00,82.9,66.1,27.82,NE,38,2.1,2.2,57,-99.99,,,-99.99,WSDL version 420,2013-06-13 00:08:00,
2013-06-12 20:13:00,82.7,65.9,27.82,NE,34,0.7,2.2,57,-99.99,,,-99.99,WSDL version 420,2013-06-13 00:13:00,
2013-06-12 20:18:00,82.5,65.7,27.82,North,353,0.8,2.5,57,-99.99,,,-99.99,WSDL version 420,2013-06-13 00:18:00,
2013-06-12 20:23:00,82.2,65.4,27.85,SSE,158,1.0,2.9,57,-99.99,,,-99.99,WSDL version 420,2013-06-13 00:23:00,
2013-06-12 20:28:00,81.9,65.5,27.85,West,263,2.7,3.6,58,-99.99,,,-99.99,WSDL version 420,2013-06-13 00:28:00,
2013-06-12 20:33:00,81.7,65.5,27.85,North,8,0.9,3.6,58,-99.99,,,-99.99,WSDL version 420,2013-06-13 00:33:00,
2013-06-12 20:38:00,81.4,65.3,27.85,ENE,68,0.7,2.9,58,-99.99,,,-99.99,WSDL version 420,2013-06-13 00:38:00,
2013-06-12 20:43:00,81.2,65.3,27.85,SSE,162,0.5,2.9,59,-99.99,,,-99.99,WSDL version 420,2013-06-13 00:43:00,
2013-06-12 20:48:00,81.1,65.4,27.85,SE,143,0.3,2.9,59,-99.99,,,-99.99,WSDL version 420,2013-06-13 00:48:00,
2013-06-12 20:53:00,80.9,65.7,27.85,South,191,1.3,3.6,60,-99.99,,,-99.99,WSDL version 420,2013-06-13 00:53:00,
2013-06-12 20:58:00,80.7,65.7,27.85,ENE,68,0.7,3.6,61,-99.99,,,-99.99,WSDL version 420,2013-06-13 00:58:00,
2013-06-12 21:03:00,80.4,66.1,27.85,SSE,158,2.5,2.5,62,-99.99,,,-99.99,WSDL version 420,2013-06-13 01:03:00,
2013-06-12 21:08:00,80.2,66.0,27.85,ESE,105,1.9,2.5,62,-99.99,,,-99.99,WSDL version 420,2013-06-13 01:08:00,
2013-06-12 21:13:00,80.1,65.9,27.85,NNE,15,1.5,2.9,62,-99.99,,,-99.99,WSDL version 420,2013-06-13 01:13:00,
2013-06-12 21:18:00,79.9,66.2,27.85,East,96,1.3,2.9,63,-99.99,,,-99.99,WSDL version 420,2013-06-13 01:18:00,
2013-06-12 21:23:00,79.8,66.1,27.85,NE,38,1.3,2.0,63,-99.99,,,-99.99,WSDL version 420,2013-06-13 01:23:00,
2013-06-12 21:28:00,79.7,66.0,27.85,WSW,255,1.5,2.9,63,-99.99,,,-99.99,WSDL version 420,2013-06-13 01:28:00,
2013-06-12 21:33:00,79.6,65.9,27.85,SE,135,0.9,2.9,63,-99.99,,,-99.99,WSDL version 420,2013-06-13 01:33:00,
2013-06-12 21:38:00,79.5,66.0,27.85,East,83,1.1,2.7,64,-99.99,,,-99.99,WSDL version 420,2013-06-13 01:38:00,
2013-06-12 21:43:00,79.3,66.1,27.85,SSE,163,2.1,2.9,64,-99.99,,,-99.99,WSDL version 420,2013-06-13 01:43:00,
2013-06-12 21:48:00,79.3,66.0,27.85,SW,218,0.6,4.0,63,-99.99,,,-99.99,WSDL version 420,2013-06-13 01:48:00,
2013-06-12 21:53:00,79.3,65.8,27.85,SW,233,0.0,4.0,64,-99.99,,,-99.99,WSDL version 420,2013-06-13 01:53:00,
2013-06-12 21:58:00,79.0,65.8,27.85,NNE,23,2.0,2.7,64,-99.99,,,-99.99,WSDL version 420,2013-06-13 01:58:00,
2013-06-12 22:03:00,79.0,65.8,27.85,NNE,17,2.6,2.9,64,-99.99,,,-99.99,WSDL version 420,2013-06-13 02:03:00,
2013-06-12 22:08:00,78.8,65.6,27.85,SW,218,0.9,2.9,64,-99.99,,,-99.99,WSDL version 420,2013-06-13 02:08:00,
2013-06-12 22:13:00,78.8,65.6,27.85,South,186,0.0,2.9,64,-99.99,,,-99.99,WSDL version 420,2013-06-13 02:13:00,
2013-06-12 22:18:00,78.7,65.7,27.85,ESE,105,2.1,3.4,65,-99.99,,,-99.99,WSDL version 420,2013-06-13 02:18:00,
2013-06-12 22:23:00,78.5,65.8,27.85,NNW,338,0.0,3.4,65,-99.99,,,-99.99,WSDL version 420,2013-06-13 02:23:00,
2013-06-12 22:28:00,78.3,65.6,27.85,WSW,257,0.0,3.4,65,-99.99,,,-99.99,WSDL version 420,2013-06-13 02:28:00,
2013-06-12 22:33:00,78.3,65.5,27.85,NE,45,1.6,3.4,65,-99.99,,,-99.99,WSDL version 420,2013-06-13 02:33:00,
2013-06-12 22:38:00,78.3,65.5,27.85,NNW,338,0.9,2.5,65,-99.99,,,-99.99,WSDL version 420,2013-06-13 02:38:00,
2013-06-12 22:43:00,78.1,65.1,27.85,NE,45,1.5,2.5,64,-99.99,,,-99.99,WSDL version 420,2013-06-13 02:43:00,
2013-06-12 22:48:00,78.0,65.3,27.85,NNE,30,0.3,2.2,65,-99.99,,,-99.99,WSDL version 420,2013-06-13 02:48:00,
2013-06-12 22:53:00,78.0,65.3,27.85,SE,128,0.3,2.2,65,-99.99,,,-99.99,WSDL version 420,2013-06-13 02:53:00,
2013-06-12 22:58:00,77.8,65.1,27.85,South,188,0.3,1.6,65,-99.99,,,-99.99,WSDL version 420,2013-06-13 02:58:00,
2013-06-12 23:03:00,77.7,65.0,27.85,South,180,0.0,2.2,65,-99.99,,,-99.99,WSDL version 420,2013-06-13 03:03:00,
2013-06-12 23:08:00,77.5,64.9,27.85,SSE,165,0.3,2.2,65,-99.99,,,-99.99,WSDL version 420,2013-06-13 03:08:00,
2013-06-12 23:13:00,77.4,64.7,27.85,West,281,0.3,2.0,65,-99.99,,,-99.99,WSDL version 420,2013-06-13 03:13:00,
2013-06-12 23:18:00,77.3,64.6,27.85,North,8,0.0,2.2,65,-99.99,,,-99.99,WSDL version 420,2013-06-13 03:18:00,
2013-06-12 23:23:00,77.2,64.5,27.85,West,276,0.7,2.7,65,-99.99,,,-99.99,WSDL version 420,2013-06-13 03:23:00,
2013-06-12 23:28:00,77.2,64.5,27.85,NW,315,0.0,2.7,65,-99.99,,,-99.99,WSDL version 420,2013-06-13 03:28:00,
2013-06-12 23:33:00,77.1,64.4,27.85,NW,308,1.9,2.5,65,-99.99,,,-99.99,WSDL version 420,2013-06-13 03:33:00,
2013-06-12 23:38:00,77.0,64.3,27.85,WNW,287,1.5,2.9,65,-99.99,,,-99.99,WSDL version 420,2013-06-13 03:38:00,
2013-06-12 23:43:00,76.8,64.2,27.85,West,281,0.6,2.9,65,0.00,,,0.00,WSDL version 420,2013-06-13 03:43:00,
2013-06-12 23:48:00,76.8,64.1,27.85,NE,53,2.6,2.9,65,0.00,,,0.00,WSDL version 420,2013-06-13 03:48:00,
2013-06-12 23:53:00,76.6,64.0,27.82,SSE,158,1.1,2.9,65,0.00,,,0.00,WSDL version 420,2013-06-13 03:53:00,
2013-06-12 23:58:00,76.6,64.1,27.82,NW,309,0.3,3.1,66,0.00,,,0.00,WSDL version 420,2013-06-13 03:58:00,